Mc Alester Regional Airport
KMLC : now visible

Airfield :











YOU CAN JOIN US ON...

 
LOGIN :

Register | Disclaimer

   EN    FR    IT 

 









Legend :    VFR   Marginal VFR   IFR   Intensive IFR   Very Intensive IFR
Visi :
Ceiling :
>= 8 km
>= 3000ft
5 to 8 km
1000 to 3000 ft
1500m to 5 km
500 to 1000 ft
800 to 1500m
200 to 500 ft
< 800m
< 200 ft
Symbols :   Thunderstorms  Fog  Heavy snow  Heavy precipitations  Wind > 20 kt






- Airport Elevation : 770 ft


KMLC - Mc Alester Regional

CURRENT METAR :
  • 262253Z AUTO 35012G20KT 7SM -RA OVC009 03/02 A3019 RMK AO2 LTG DSNT N RAE19B37 SLP223 P0000 T00330022

EXPIRED METARs :
  • 262209Z AUTO 36013G21KT 10SM -RA BKN008 OVC013 04/02 A3016 RMK AO2 LTG DSNT W P0000 T00390022
  • 262153Z AUTO 36014G21KT 7SM -RA SCT008 OVC012 04/02 A3016 RMK AO2 LTG DSNT E SLP214 P0009 T00390022
  • 262146Z AUTO 36010KT 4SM -RA BR SCT008 OVC013 04/03 A3016 RMK AO2 LTG DSNT E P0009 T00390028
  • 262113Z AUTO 01013KT 3SM +RA BR BKN007 BKN026 OVC055 04/03 A3014 RMK AO2 LTG DSNT N AND NW P0003 T00390028
  • 262053Z AUTO 02014G23KT 5SM RA BR SCT007 BKN045 OVC055 04/03 A3013 RMK AO2 LTG DSNT NE AND W SLP205 P0007 60015 T00390028 56018

TAF KMLC
Valid from the 26 at 19:00 until the 27 at 18:00 UTC


261915Z 2619/2718 02009KT 5SM -RA VCTS BKN008CB
TEMPO 2622/2702 2SM TSRA BR OVC005CB
FM270200 01014KT 4SM -RA BR OVC004
KZFW FIR / North America



MET'MAP, your aeronautical weather chart ! - Copyright ORBIFLY December 2007 - Disclaimer

ORBIFLY MET'MAP TEAM :

Programming & Development : Alexandra Zaïnal
Concept & original design : Baudouin d'Aumeries
Assistance for programming : Marc-Olivier Méhu
Technical & hardware support : Manuel Goepfert

Contact : metmap@orbifly.com




SOURCES & CREDITS :

   NOAA       Earth
Advisory